SJY913 WASS-WAAA
Flight info
| Callsign | SJY913 |
|---|---|
| Flight time | 1h 55m |
| Altitude | 38000 |
| Route | DAPTI W41 LEKEX |
| Aircraft | B738/M-SDE2E3FGHIRWXY/LB1 |
Departure
| Time | 2026-05-06 06:23 |
|---|---|
| Airport | Domine Eduard Osok Airport (WASS) |
Arrival
| Time | 2026-05-06 08:18 |
|---|---|
| Airport | Sultan Hasanuddin International Airport (WAAA) |
| Time | Latitude | Longitude | Altitude | Speed | Heading |
|---|---|---|---|---|---|
| 2026-05-06 06:13 | -0.89195 | 131.29080 | 10 ft | 0 kts | 183° |
| 2026-05-06 06:19 | -0.89196 | 131.29080 | 10 ft | 0 kts | 183° |
| 2026-05-06 06:19 | -0.89215 | 131.29084 | 12 ft | 7 kts | 155° |
| 2026-05-06 06:19 | -0.89251 | 131.29137 | 12 ft | 11 kts | 131° |
| 2026-05-06 06:19 | -0.89328 | 131.29157 | 13 ft | 13 kts | 182° |
| 2026-05-06 06:20 | -0.89419 | 131.29161 | 16 ft | 13 kts | 155° |
| 2026-05-06 06:20 | -0.89437 | 131.29252 | 15 ft | 15 kts | 92° |
| 2026-05-06 06:20 | -0.89443 | 131.29366 | 14 ft | 18 kts | 95° |
| 2026-05-06 06:20 | -0.89452 | 131.29497 | 14 ft | 20 kts | 94° |
| 2026-05-06 06:21 | -0.89461 | 131.29637 | 15 ft | 20 kts | 94° |
| 2026-05-06 06:21 | -0.89471 | 131.29784 | 14 ft | 22 kts | 93° |
| 2026-05-06 06:21 | -0.89471 | 131.29939 | 18 ft | 20 kts | 72° |
| 2026-05-06 06:21 | -0.89476 | 131.29983 | 19 ft | 1 kts | 204° |
| 2026-05-06 06:22 | -0.89481 | 131.29954 | 16 ft | 10 kts | 267° |
| 2026-05-06 06:22 | -0.89466 | 131.29694 | 15 ft | 74 kts | 273° |
| 2026-05-06 06:22 | -0.89416 | 131.28939 | 13 ft | 141 kts | 274° |
| 2026-05-06 06:22 | -0.89340 | 131.27846 | 391 ft | 163 kts | 272° |
| 2026-05-06 06:23 | -0.89246 | 131.26712 | 1170 ft | 165 kts | 273° |
| 2026-05-06 06:23 | -0.89373 | 131.25548 | 1804 ft | 170 kts | 254° |
| 2026-05-06 06:23 | -0.89680 | 131.24306 | 2132 ft | 199 kts | 256° |
| 2026-05-06 06:23 | -0.90011 | 131.22876 | 2361 ft | 222 kts | 257° |
| 2026-05-06 06:24 | -0.90371 | 131.21319 | 2691 ft | 239 kts | 257° |
| 2026-05-06 06:24 | -0.90765 | 131.19629 | 3028 ft | 257 kts | 257° |
| 2026-05-06 06:24 | -0.91173 | 131.17864 | 3748 ft | 261 kts | 257° |
| 2026-05-06 06:24 | -0.91578 | 131.16092 | 4577 ft | 264 kts | 258° |
| 2026-05-06 06:25 | -0.91981 | 131.14310 | 5308 ft | 268 kts | 257° |
| 2026-05-06 06:25 | -0.92390 | 131.12486 | 6102 ft | 269 kts | 258° |
| 2026-05-06 06:25 | -0.93212 | 131.08798 | 7554 ft | 275 kts | 258° |
| 2026-05-06 06:26 | -0.93629 | 131.06911 | 8244 ft | 280 kts | 258° |
| 2026-05-06 06:26 | -0.94053 | 131.04998 | 8917 ft | 284 kts | 258° |
| 2026-05-06 06:26 | -0.94480 | 131.03068 | 9645 ft | 287 kts | 258° |
| 2026-05-06 06:26 | -0.94909 | 131.01125 | 10248 ft | 293 kts | 258° |
| 2026-05-06 06:27 | -0.95363 | 130.99065 | 10439 ft | 315 kts | 258° |
| 2026-05-06 06:27 | -0.95847 | 130.96867 | 10655 ft | 333 kts | 258° |
| 2026-05-06 06:27 | -0.96353 | 130.94577 | 11107 ft | 341 kts | 258° |
| 2026-05-06 06:27 | -0.96871 | 130.92235 | 11649 ft | 347 kts | 258° |
| 2026-05-06 06:28 | -0.97388 | 130.89897 | 12211 ft | 350 kts | 258° |
| 2026-05-06 06:28 | -0.97913 | 130.87526 | 12949 ft | 351 kts | 258° |
| 2026-05-06 06:28 | -0.98446 | 130.85114 | 13493 ft | 358 kts | 258° |
| 2026-05-06 06:28 | -0.98984 | 130.82671 | 14019 ft | 362 kts | 258° |
| 2026-05-06 06:29 | -0.99528 | 130.80204 | 14606 ft | 365 kts | 258° |
| 2026-05-06 06:29 | -1.00139 | 130.77727 | 15162 ft | 369 kts | 256° |
| 2026-05-06 06:29 | -1.00826 | 130.75242 | 15732 ft | 373 kts | 255° |
| 2026-05-06 06:29 | -1.01542 | 130.72737 | 16290 ft | 376 kts | 255° |
| 2026-05-06 06:30 | -1.02267 | 130.70208 | 16815 ft | 381 kts | 254° |
| 2026-05-06 06:30 | -1.02996 | 130.67650 | 17349 ft | 385 kts | 255° |
| 2026-05-06 06:30 | -1.03730 | 130.65057 | 17884 ft | 388 kts | 255° |
| 2026-05-06 06:30 | -1.04454 | 130.62482 | 18347 ft | 392 kts | 255° |
| 2026-05-06 06:31 | -1.05195 | 130.59837 | 18810 ft | 395 kts | 255° |
| 2026-05-06 06:31 | -1.05937 | 130.57184 | 19278 ft | 398 kts | 255° |
| 2026-05-06 06:31 | -1.06685 | 130.54505 | 19691 ft | 402 kts | 255° |
| 2026-05-06 06:31 | -1.07441 | 130.51797 | 20124 ft | 406 kts | 255° |
| 2026-05-06 06:32 | -1.08200 | 130.49076 | 20593 ft | 408 kts | 255° |
| 2026-05-06 06:32 | -1.08967 | 130.46332 | 21005 ft | 411 kts | 255° |
| 2026-05-06 06:32 | -1.09740 | 130.43560 | 21367 ft | 416 kts | 255° |
| 2026-05-06 06:32 | -1.10518 | 130.40773 | 21834 ft | 417 kts | 255° |
| 2026-05-06 06:33 | -1.11302 | 130.37964 | 22267 ft | 420 kts | 255° |
| 2026-05-06 06:33 | -1.12092 | 130.35136 | 22590 ft | 425 kts | 255° |
| 2026-05-06 06:33 | -1.12887 | 130.32290 | 22815 ft | 422 kts | 255° |
| 2026-05-06 06:33 | -1.13676 | 130.29465 | 22802 ft | 420 kts | 255° |
| 2026-05-06 06:34 | -1.14464 | 130.26646 | 22812 ft | 424 kts | 255° |
| 2026-05-06 06:34 | -1.15249 | 130.23833 | 22822 ft | 428 kts | 255° |
| 2026-05-06 06:34 | -1.16052 | 130.20955 | 22811 ft | 427 kts | 255° |
| 2026-05-06 06:34 | -1.16866 | 130.18110 | 22804 ft | 425 kts | 251° |
| 2026-05-06 06:35 | -1.18206 | 130.15489 | 22925 ft | 427 kts | 237° |
| 2026-05-06 06:35 | -1.19850 | 130.12992 | 23297 ft | 430 kts | 237° |
| 2026-05-06 06:35 | -1.21488 | 130.10490 | 23690 ft | 431 kts | 237° |
| 2026-05-06 06:35 | -1.23123 | 130.07971 | 24014 ft | 433 kts | 237° |
| 2026-05-06 06:36 | -1.24759 | 130.05429 | 24320 ft | 435 kts | 237° |
| 2026-05-06 06:36 | -1.25841 | 130.03739 | 24529 ft | 437 kts | 237° |
| 2026-05-06 06:36 | -1.27480 | 130.01170 | 24823 ft | 440 kts | 237° |
| 2026-05-06 06:36 | -1.29668 | 129.97736 | 25218 ft | 443 kts | 237° |
| 2026-05-06 06:37 | -1.31321 | 129.95140 | 25560 ft | 444 kts | 237° |
| 2026-05-06 06:37 | -1.32423 | 129.93409 | 25721 ft | 446 kts | 237° |
| 2026-05-06 06:37 | -1.34095 | 129.90785 | 26018 ft | 448 kts | 237° |
| 2026-05-06 06:37 | -1.35771 | 129.88154 | 26350 ft | 449 kts | 237° |
| 2026-05-06 06:38 | -1.37456 | 129.85509 | 26602 ft | 452 kts | 237° |
| 2026-05-06 06:38 | -1.39154 | 129.82845 | 26883 ft | 454 kts | 237° |
| 2026-05-06 06:38 | -1.40856 | 129.80174 | 27199 ft | 455 kts | 237° |
| 2026-05-06 06:38 | -1.42561 | 129.77497 | 27474 ft | 457 kts | 237° |
| 2026-05-06 06:39 | -1.44265 | 129.74813 | 27774 ft | 458 kts | 238° |
| 2026-05-06 06:39 | -1.45690 | 129.71955 | 27999 ft | 462 kts | 249° |
| 2026-05-06 06:39 | -1.46804 | 129.68932 | 28231 ft | 464 kts | 251° |
| 2026-05-06 06:39 | -1.47836 | 129.65870 | 28527 ft | 465 kts | 252° |
| 2026-05-06 06:40 | -1.48860 | 129.62798 | 28797 ft | 466 kts | 252° |
| 2026-05-06 06:40 | -1.49892 | 129.59764 | 29027 ft | 469 kts | 251° |
| 2026-05-06 06:40 | -1.50969 | 129.56678 | 29261 ft | 470 kts | 251° |
| 2026-05-06 06:40 | -1.52070 | 129.53587 | 29502 ft | 472 kts | 250° |
| 2026-05-06 06:41 | -1.53187 | 129.50490 | 29726 ft | 474 kts | 250° |
| 2026-05-06 06:41 | -1.54312 | 129.47385 | 29941 ft | 476 kts | 250° |
| 2026-05-06 06:41 | -1.55441 | 129.44272 | 30131 ft | 477 kts | 250° |
| 2026-05-06 06:41 | -1.56572 | 129.41150 | 30337 ft | 478 kts | 250° |
| 2026-05-06 06:42 | -1.57702 | 129.38025 | 30529 ft | 479 kts | 250° |
| 2026-05-06 06:42 | -1.58822 | 129.34928 | 30738 ft | 480 kts | 250° |
| 2026-05-06 06:42 | -1.59955 | 129.31794 | 31017 ft | 479 kts | 250° |
| 2026-05-06 06:42 | -1.61083 | 129.28672 | 31330 ft | 477 kts | 250° |
| 2026-05-06 06:43 | -1.62209 | 129.25558 | 31607 ft | 476 kts | 250° |
| 2026-05-06 06:43 | -1.63336 | 129.22438 | 31875 ft | 476 kts | 250° |
| 2026-05-06 06:43 | -1.64457 | 129.19334 | 32155 ft | 475 kts | 250° |
| 2026-05-06 06:43 | -1.65577 | 129.16232 | 32423 ft | 474 kts | 250° |
| 2026-05-06 06:44 | -1.66699 | 129.13126 | 32712 ft | 474 kts | 250° |
| 2026-05-06 06:44 | -1.67816 | 129.10032 | 33016 ft | 472 kts | 250° |
| 2026-05-06 06:44 | -1.68933 | 129.06943 | 33289 ft | 472 kts | 250° |
| 2026-05-06 06:44 | -1.70047 | 129.03861 | 33596 ft | 471 kts | 250° |
| 2026-05-06 06:45 | -1.71158 | 129.00788 | 33877 ft | 470 kts | 250° |
| 2026-05-06 06:45 | -1.72269 | 128.97714 | 34107 ft | 470 kts | 250° |
| 2026-05-06 06:45 | -1.73379 | 128.94644 | 34369 ft | 469 kts | 250° |
| 2026-05-06 06:45 | -1.74484 | 128.91585 | 34636 ft | 468 kts | 250° |
| 2026-05-06 06:46 | -1.75591 | 128.88525 | 34872 ft | 468 kts | 250° |
| 2026-05-06 06:46 | -1.76694 | 128.85472 | 35147 ft | 466 kts | 250° |
| 2026-05-06 06:46 | -1.77792 | 128.82435 | 35405 ft | 465 kts | 250° |
| 2026-05-06 06:46 | -1.78892 | 128.79392 | 35644 ft | 464 kts | 250° |
| 2026-05-06 06:47 | -1.79971 | 128.76406 | 35961 ft | 462 kts | 250° |
| 2026-05-06 06:47 | -1.81074 | 128.73353 | 36204 ft | 461 kts | 250° |
| 2026-05-06 06:47 | -1.82150 | 128.70376 | 36405 ft | 461 kts | 250° |
| 2026-05-06 06:47 | -1.83237 | 128.67367 | 36676 ft | 459 kts | 250° |
| 2026-05-06 06:48 | -1.84321 | 128.64366 | 36898 ft | 459 kts | 250° |
| 2026-05-06 06:48 | -1.85406 | 128.61364 | 37183 ft | 456 kts | 250° |
| 2026-05-06 06:48 | -1.86482 | 128.58386 | 37469 ft | 455 kts | 250° |
| 2026-05-06 06:48 | -1.87558 | 128.55406 | 37649 ft | 455 kts | 250° |
| 2026-05-06 06:49 | -1.88630 | 128.52441 | 37759 ft | 451 kts | 250° |
| 2026-05-06 06:49 | -1.90761 | 128.46539 | 37808 ft | 453 kts | 250° |
| 2026-05-06 06:50 | -1.92915 | 128.40576 | 37810 ft | 458 kts | 250° |
| 2026-05-06 06:50 | -1.95085 | 128.34566 | 37815 ft | 461 kts | 250° |
| 2026-05-06 06:51 | -1.97251 | 128.28565 | 37793 ft | 460 kts | 250° |
| 2026-05-06 06:51 | -1.99405 | 128.22599 | 37790 ft | 452 kts | 250° |
| 2026-05-06 06:52 | -2.01542 | 128.16680 | 37817 ft | 451 kts | 250° |
| 2026-05-06 06:52 | -2.03671 | 128.10783 | 37804 ft | 451 kts | 250° |
| 2026-05-06 06:53 | -2.05797 | 128.04889 | 37805 ft | 450 kts | 249° |
| 2026-05-06 06:53 | -2.07921 | 127.99004 | 37808 ft | 450 kts | 250° |
| 2026-05-06 06:54 | -2.10030 | 127.93159 | 37811 ft | 449 kts | 250° |
| 2026-05-06 06:54 | -2.12150 | 127.87283 | 37813 ft | 449 kts | 249° |
| 2026-05-06 06:55 | -2.14270 | 127.81405 | 37810 ft | 449 kts | 249° |
| 2026-05-06 06:55 | -2.16388 | 127.75532 | 37806 ft | 449 kts | 249° |
| 2026-05-06 06:56 | -2.18504 | 127.69662 | 37802 ft | 449 kts | 249° |
| 2026-05-06 06:56 | -2.20622 | 127.63791 | 37813 ft | 449 kts | 249° |
| 2026-05-06 06:57 | -2.22727 | 127.57953 | 37806 ft | 449 kts | 249° |
| 2026-05-06 06:57 | -2.24848 | 127.52070 | 37813 ft | 450 kts | 249° |
| 2026-05-06 06:58 | -2.26972 | 127.46179 | 37805 ft | 451 kts | 249° |
| 2026-05-06 06:58 | -2.29104 | 127.40268 | 37820 ft | 452 kts | 249° |
| 2026-05-06 06:59 | -2.31258 | 127.34328 | 37818 ft | 455 kts | 249° |
| 2026-05-06 06:59 | -2.33409 | 127.28404 | 37818 ft | 457 kts | 248° |
| 2026-05-06 07:00 | -2.35586 | 127.22409 | 37814 ft | 459 kts | 249° |
| 2026-05-06 07:00 | -2.37772 | 127.16387 | 37816 ft | 461 kts | 249° |
| 2026-05-06 07:01 | -2.39966 | 127.10340 | 37822 ft | 463 kts | 249° |
| 2026-05-06 07:01 | -2.42167 | 127.04272 | 37815 ft | 465 kts | 249° |
| 2026-05-06 07:02 | -2.44364 | 126.98214 | 37818 ft | 464 kts | 249° |
| 2026-05-06 07:02 | -2.46526 | 126.92256 | 37801 ft | 447 kts | 249° |
| 2026-05-06 07:03 | -2.48635 | 126.86439 | 37808 ft | 444 kts | 249° |
| 2026-05-06 07:03 | -2.50737 | 126.80649 | 37809 ft | 442 kts | 249° |
| 2026-05-06 07:04 | -2.52824 | 126.74888 | 37827 ft | 445 kts | 249° |
| 2026-05-06 07:04 | -2.54946 | 126.69030 | 37824 ft | 451 kts | 249° |
| 2026-05-06 07:05 | -2.57092 | 126.63105 | 37818 ft | 454 kts | 249° |
| 2026-05-06 07:05 | -2.59253 | 126.57142 | 37814 ft | 456 kts | 249° |
| 2026-05-06 07:06 | -2.61400 | 126.51212 | 37799 ft | 454 kts | 249° |
| 2026-05-06 07:06 | -2.63534 | 126.45319 | 37801 ft | 447 kts | 249° |
| 2026-05-06 07:07 | -2.65649 | 126.39479 | 37815 ft | 446 kts | 249° |
| 2026-05-06 07:07 | -2.67761 | 126.33646 | 37811 ft | 445 kts | 249° |
| 2026-05-06 07:08 | -2.69871 | 126.27819 | 37818 ft | 445 kts | 249° |
| 2026-05-06 07:08 | -2.71982 | 126.21988 | 37824 ft | 445 kts | 249° |
| 2026-05-06 07:09 | -2.74077 | 126.16199 | 37813 ft | 446 kts | 249° |
| 2026-05-06 07:09 | -2.76188 | 126.10364 | 37818 ft | 446 kts | 249° |
| 2026-05-06 07:10 | -2.78305 | 126.04513 | 37817 ft | 447 kts | 249° |
| 2026-05-06 07:10 | -2.80420 | 125.98665 | 37816 ft | 448 kts | 249° |
| 2026-05-06 07:11 | -2.82544 | 125.92791 | 37817 ft | 448 kts | 249° |
| 2026-05-06 07:11 | -2.84650 | 125.86965 | 37821 ft | 448 kts | 249° |
| 2026-05-06 07:12 | -2.86777 | 125.81084 | 37819 ft | 449 kts | 249° |
| 2026-05-06 07:12 | -2.88898 | 125.75216 | 37813 ft | 449 kts | 249° |
| 2026-05-06 07:13 | -2.91022 | 125.69338 | 37824 ft | 449 kts | 249° |
| 2026-05-06 07:13 | -2.93147 | 125.63459 | 37818 ft | 449 kts | 249° |
| 2026-05-06 07:14 | -2.95256 | 125.57620 | 37818 ft | 449 kts | 249° |
| 2026-05-06 07:14 | -2.97379 | 125.51741 | 37820 ft | 449 kts | 249° |
| 2026-05-06 07:15 | -2.99501 | 125.45866 | 37810 ft | 450 kts | 249° |
| 2026-05-06 07:15 | -3.01625 | 125.39981 | 37823 ft | 450 kts | 249° |
| 2026-05-06 07:16 | -3.03756 | 125.34079 | 37821 ft | 451 kts | 249° |
| 2026-05-06 07:16 | -3.05889 | 125.28169 | 37820 ft | 452 kts | 249° |
| 2026-05-06 07:17 | -3.08027 | 125.22245 | 37814 ft | 453 kts | 250° |
| 2026-05-06 07:17 | -3.10167 | 125.16313 | 37822 ft | 454 kts | 250° |
| 2026-05-06 07:18 | -3.12301 | 125.10399 | 37810 ft | 455 kts | 250° |
| 2026-05-06 07:18 | -3.14454 | 125.04428 | 37824 ft | 456 kts | 250° |
| 2026-05-06 07:19 | -3.16610 | 124.98448 | 37831 ft | 457 kts | 250° |
| 2026-05-06 07:19 | -3.18759 | 124.92488 | 37819 ft | 458 kts | 250° |
| 2026-05-06 07:20 | -3.20919 | 124.86494 | 37819 ft | 458 kts | 250° |
| 2026-05-06 07:20 | -3.23080 | 124.80494 | 37825 ft | 458 kts | 250° |
| 2026-05-06 07:21 | -3.25239 | 124.74501 | 37821 ft | 458 kts | 250° |
| 2026-05-06 07:21 | -3.27397 | 124.68512 | 37827 ft | 456 kts | 250° |
| 2026-05-06 07:22 | -3.29549 | 124.62537 | 37819 ft | 455 kts | 250° |
| 2026-05-06 07:22 | -3.31688 | 124.56597 | 37819 ft | 453 kts | 250° |
| 2026-05-06 07:23 | -3.33806 | 124.50710 | 37821 ft | 451 kts | 250° |
| 2026-05-06 07:23 | -3.35931 | 124.44806 | 37826 ft | 449 kts | 250° |
| 2026-05-06 07:24 | -3.38049 | 124.38921 | 37822 ft | 448 kts | 249° |
| 2026-05-06 07:24 | -3.40160 | 124.33053 | 37826 ft | 447 kts | 249° |
| 2026-05-06 07:25 | -3.42253 | 124.27235 | 37827 ft | 447 kts | 249° |
| 2026-05-06 07:25 | -3.44361 | 124.21373 | 37828 ft | 447 kts | 250° |
| 2026-05-06 07:26 | -3.46473 | 124.15504 | 37821 ft | 448 kts | 249° |
| 2026-05-06 07:26 | -3.48589 | 124.09622 | 37839 ft | 450 kts | 249° |
| 2026-05-06 07:27 | -3.50709 | 124.03716 | 37829 ft | 452 kts | 250° |
| 2026-05-06 07:27 | -3.52837 | 123.97789 | 37826 ft | 453 kts | 249° |
| 2026-05-06 07:28 | -3.54960 | 123.91877 | 37840 ft | 454 kts | 249° |
| 2026-05-06 07:28 | -3.58169 | 123.82947 | 37820 ft | 454 kts | 250° |
| 2026-05-06 07:29 | -3.60302 | 123.77006 | 37820 ft | 452 kts | 250° |
| 2026-05-06 07:29 | -3.62065 | 123.72089 | 37824 ft | 450 kts | 249° |
| 2026-05-06 07:30 | -3.64179 | 123.66201 | 37822 ft | 449 kts | 250° |
| 2026-05-06 07:30 | -3.66285 | 123.60330 | 37828 ft | 447 kts | 250° |
| 2026-05-06 07:31 | -3.68383 | 123.54480 | 37832 ft | 445 kts | 250° |
| 2026-05-06 07:31 | -3.70477 | 123.48644 | 37825 ft | 444 kts | 250° |
| 2026-05-06 07:32 | -3.72547 | 123.42867 | 37830 ft | 444 kts | 250° |
| 2026-05-06 07:32 | -3.74634 | 123.37049 | 37833 ft | 444 kts | 250° |
| 2026-05-06 07:33 | -3.76723 | 123.31220 | 37828 ft | 445 kts | 250° |
| 2026-05-06 07:33 | -3.78816 | 123.25376 | 37835 ft | 446 kts | 250° |
| 2026-05-06 07:34 | -3.80917 | 123.19511 | 37836 ft | 447 kts | 250° |
| 2026-05-06 07:34 | -3.83024 | 123.13633 | 37817 ft | 449 kts | 249° |
| 2026-05-06 07:35 | -3.85133 | 123.07749 | 37840 ft | 454 kts | 249° |
| 2026-05-06 07:35 | -3.87284 | 123.01741 | 37838 ft | 461 kts | 249° |
| 2026-05-06 07:36 | -3.89463 | 122.95667 | 37835 ft | 465 kts | 249° |
| 2026-05-06 07:36 | -3.91658 | 122.89576 | 37818 ft | 462 kts | 249° |
| 2026-05-06 07:37 | -3.93817 | 122.83584 | 37822 ft | 454 kts | 249° |
| 2026-05-06 07:37 | -3.95943 | 122.77679 | 37831 ft | 453 kts | 249° |
| 2026-05-06 07:38 | -3.98081 | 122.71745 | 37840 ft | 452 kts | 249° |
| 2026-05-06 07:38 | -4.00216 | 122.65812 | 37834 ft | 453 kts | 249° |
| 2026-05-06 07:39 | -4.02354 | 122.59873 | 37830 ft | 454 kts | 250° |
| 2026-05-06 07:39 | -4.04499 | 122.53914 | 37842 ft | 455 kts | 250° |
| 2026-05-06 07:40 | -4.06650 | 122.47937 | 37845 ft | 458 kts | 250° |
| 2026-05-06 07:40 | -4.08782 | 122.41902 | 37841 ft | 460 kts | 251° |
| 2026-05-06 07:41 | -4.10812 | 122.35843 | 37844 ft | 462 kts | 251° |
| 2026-05-06 07:41 | -4.12857 | 122.29714 | 37838 ft | 464 kts | 251° |
| 2026-05-06 07:42 | -4.14924 | 122.23563 | 37833 ft | 466 kts | 251° |
| 2026-05-06 07:42 | -4.16996 | 122.17417 | 37840 ft | 465 kts | 251° |
| 2026-05-06 07:43 | -4.19059 | 122.11299 | 37838 ft | 465 kts | 251° |
| 2026-05-06 07:43 | -4.21127 | 122.05163 | 37836 ft | 464 kts | 251° |
| 2026-05-06 07:44 | -4.23175 | 121.99083 | 37840 ft | 462 kts | 251° |
| 2026-05-06 07:44 | -4.25225 | 121.92996 | 37839 ft | 460 kts | 251° |
| 2026-05-06 07:45 | -4.26414 | 121.90036 | 37815 ft | 458 kts | 239° |
| 2026-05-06 07:45 | -4.28275 | 121.87474 | 37880 ft | 454 kts | 231° |
| 2026-05-06 07:45 | -4.32200 | 121.82489 | 37839 ft | 455 kts | 231° |
| 2026-05-06 07:46 | -4.36075 | 121.77471 | 37835 ft | 455 kts | 232° |
| 2026-05-06 07:46 | -4.39928 | 121.72422 | 37840 ft | 456 kts | 232° |
| 2026-05-06 07:47 | -4.43755 | 121.67392 | 37827 ft | 458 kts | 232° |
| 2026-05-06 07:47 | -4.47621 | 121.62310 | 37823 ft | 460 kts | 232° |
| 2026-05-06 07:48 | -4.51505 | 121.57209 | 37833 ft | 461 kts | 232° |
| 2026-05-06 07:48 | -4.55409 | 121.52084 | 37831 ft | 462 kts | 232° |
| 2026-05-06 07:49 | -4.59256 | 121.47027 | 37820 ft | 455 kts | 233° |
| 2026-05-06 07:49 | -4.61171 | 121.44512 | 37542 ft | 454 kts | 232° |
| 2026-05-06 07:49 | -4.63086 | 121.41998 | 37088 ft | 451 kts | 232° |
| 2026-05-06 07:50 | -4.64986 | 121.39503 | 36602 ft | 448 kts | 232° |
| 2026-05-06 07:50 | -4.66863 | 121.37038 | 36233 ft | 443 kts | 232° |
| 2026-05-06 07:50 | -4.68727 | 121.34591 | 35821 ft | 440 kts | 232° |
| 2026-05-06 07:50 | -4.70578 | 121.32160 | 35422 ft | 437 kts | 232° |
| 2026-05-06 07:51 | -4.72418 | 121.29742 | 35025 ft | 434 kts | 232° |
| 2026-05-06 07:51 | -4.74249 | 121.27340 | 34618 ft | 432 kts | 231° |
| 2026-05-06 07:51 | -4.76070 | 121.24950 | 34201 ft | 430 kts | 232° |
| 2026-05-06 07:51 | -4.77879 | 121.22573 | 33782 ft | 428 kts | 231° |
| 2026-05-06 07:52 | -4.79685 | 121.20201 | 33349 ft | 426 kts | 231° |
| 2026-05-06 07:52 | -4.81455 | 121.17876 | 32937 ft | 423 kts | 232° |
| 2026-05-06 07:52 | -4.83233 | 121.15540 | 32535 ft | 420 kts | 231° |
| 2026-05-06 07:52 | -4.85001 | 121.13218 | 32140 ft | 416 kts | 231° |
| 2026-05-06 07:53 | -4.86750 | 121.10918 | 31759 ft | 413 kts | 232° |
| 2026-05-06 07:53 | -4.88489 | 121.08630 | 31372 ft | 410 kts | 231° |
| 2026-05-06 07:53 | -4.90211 | 121.06366 | 31000 ft | 407 kts | 231° |
| 2026-05-06 07:53 | -4.91922 | 121.04115 | 30623 ft | 404 kts | 231° |
| 2026-05-06 07:54 | -4.93626 | 121.01875 | 30252 ft | 402 kts | 231° |
| 2026-05-06 07:54 | -4.95316 | 120.99653 | 29870 ft | 399 kts | 231° |
| 2026-05-06 07:54 | -4.96995 | 120.97445 | 29441 ft | 396 kts | 231° |
| 2026-05-06 07:54 | -4.98661 | 120.95255 | 29023 ft | 393 kts | 231° |
| 2026-05-06 07:55 | -5.00290 | 120.93111 | 28620 ft | 390 kts | 231° |
| 2026-05-06 07:55 | -5.01925 | 120.90961 | 28233 ft | 386 kts | 231° |
| 2026-05-06 07:55 | -5.03554 | 120.88818 | 27841 ft | 383 kts | 231° |
| 2026-05-06 07:55 | -5.05164 | 120.86701 | 27465 ft | 380 kts | 231° |
| 2026-05-06 07:56 | -5.06761 | 120.84599 | 27074 ft | 377 kts | 231° |
| 2026-05-06 07:56 | -5.08352 | 120.82507 | 26706 ft | 375 kts | 230° |
| 2026-05-06 07:56 | -5.09929 | 120.80434 | 26329 ft | 373 kts | 231° |
| 2026-05-06 07:56 | -5.11501 | 120.78365 | 25965 ft | 371 kts | 230° |
| 2026-05-06 07:57 | -5.13063 | 120.76307 | 25589 ft | 370 kts | 231° |
| 2026-05-06 07:57 | -5.14602 | 120.74280 | 25203 ft | 370 kts | 232° |
| 2026-05-06 07:57 | -5.15813 | 120.72012 | 24799 ft | 372 kts | 252° |
| 2026-05-06 07:57 | -5.16209 | 120.69462 | 24465 ft | 371 kts | 267° |
| 2026-05-06 07:58 | -5.16301 | 120.66879 | 24083 ft | 371 kts | 269° |
| 2026-05-06 07:58 | -5.16348 | 120.64291 | 23700 ft | 371 kts | 269° |
| 2026-05-06 07:58 | -5.16394 | 120.61704 | 23308 ft | 371 kts | 269° |
| 2026-05-06 07:58 | -5.16451 | 120.59115 | 22888 ft | 371 kts | 269° |
| 2026-05-06 07:59 | -5.16521 | 120.56536 | 22503 ft | 369 kts | 269° |
| 2026-05-06 07:59 | -5.16599 | 120.53961 | 22133 ft | 367 kts | 269° |
| 2026-05-06 07:59 | -5.16680 | 120.51411 | 21755 ft | 365 kts | 269° |
| 2026-05-06 07:59 | -5.16763 | 120.48869 | 21399 ft | 363 kts | 269° |
| 2026-05-06 08:00 | -5.16846 | 120.46336 | 21027 ft | 362 kts | 269° |
| 2026-05-06 08:00 | -5.16927 | 120.43841 | 20677 ft | 360 kts | 269° |
| 2026-05-06 08:00 | -5.17009 | 120.41332 | 20310 ft | 359 kts | 269° |
| 2026-05-06 08:00 | -5.17089 | 120.38829 | 19959 ft | 357 kts | 269° |
| 2026-05-06 08:01 | -5.17169 | 120.36335 | 19591 ft | 357 kts | 269° |
| 2026-05-06 08:01 | -5.17248 | 120.33849 | 19220 ft | 356 kts | 269° |
| 2026-05-06 08:01 | -5.17327 | 120.31367 | 18853 ft | 356 kts | 269° |
| 2026-05-06 08:01 | -5.17407 | 120.28890 | 18500 ft | 355 kts | 269° |
| 2026-05-06 08:02 | -5.17486 | 120.26419 | 18163 ft | 354 kts | 269° |
| 2026-05-06 08:02 | -5.17565 | 120.23954 | 17755 ft | 353 kts | 269° |
| 2026-05-06 08:02 | -5.17644 | 120.21501 | 17372 ft | 351 kts | 269° |
| 2026-05-06 08:02 | -5.17721 | 120.19090 | 17008 ft | 349 kts | 269° |
| 2026-05-06 08:03 | -5.17800 | 120.16660 | 16657 ft | 347 kts | 268° |
| 2026-05-06 08:03 | -5.17878 | 120.14243 | 16305 ft | 345 kts | 268° |
| 2026-05-06 08:03 | -5.17955 | 120.11842 | 15960 ft | 343 kts | 268° |
| 2026-05-06 08:03 | -5.18032 | 120.09456 | 15608 ft | 341 kts | 268° |
| 2026-05-06 08:04 | -5.18107 | 120.07079 | 15271 ft | 340 kts | 268° |
| 2026-05-06 08:04 | -5.18182 | 120.04709 | 14921 ft | 339 kts | 268° |
| 2026-05-06 08:04 | -5.18258 | 120.02378 | 14548 ft | 339 kts | 268° |
| 2026-05-06 08:04 | -5.18336 | 120.00010 | 14132 ft | 341 kts | 268° |
| 2026-05-06 08:05 | -5.18417 | 119.97606 | 13735 ft | 340 kts | 268° |
| 2026-05-06 08:05 | -5.18494 | 119.95251 | 13303 ft | 341 kts | 267° |
| 2026-05-06 08:05 | -5.18573 | 119.92878 | 12888 ft | 340 kts | 267° |
| 2026-05-06 08:05 | -5.18652 | 119.90505 | 12473 ft | 340 kts | 267° |
| 2026-05-06 08:06 | -5.18731 | 119.88134 | 12097 ft | 339 kts | 268° |
| 2026-05-06 08:06 | -5.18808 | 119.85788 | 11799 ft | 335 kts | 268° |
| 2026-05-06 08:06 | -5.18884 | 119.83457 | 11424 ft | 333 kts | 268° |
| 2026-05-06 08:06 | -5.19231 | 119.81182 | 11031 ft | 329 kts | 248° |
| 2026-05-06 08:07 | -5.20366 | 119.79252 | 10750 ft | 323 kts | 230° |
| 2026-05-06 08:07 | -5.21838 | 119.77562 | 10439 ft | 320 kts | 226° |
| 2026-05-06 08:07 | -5.23360 | 119.75934 | 10115 ft | 318 kts | 225° |
| 2026-05-06 08:07 | -5.24851 | 119.74342 | 9948 ft | 304 kts | 225° |
| 2026-05-06 08:08 | -5.26264 | 119.72823 | 9596 ft | 298 kts | 225° |
| 2026-05-06 08:08 | -5.27666 | 119.71301 | 9236 ft | 293 kts | 226° |
| 2026-05-06 08:08 | -5.29030 | 119.69812 | 8888 ft | 286 kts | 225° |
| 2026-05-06 08:08 | -5.30367 | 119.68351 | 8623 ft | 283 kts | 225° |
| 2026-05-06 08:09 | -5.31670 | 119.66918 | 8355 ft | 278 kts | 225° |
| 2026-05-06 08:09 | -5.32962 | 119.65496 | 8078 ft | 273 kts | 225° |
| 2026-05-06 08:09 | -5.34227 | 119.64105 | 7814 ft | 269 kts | 225° |
| 2026-05-06 08:09 | -5.35485 | 119.62720 | 7566 ft | 268 kts | 225° |
| 2026-05-06 08:10 | -5.36740 | 119.61319 | 7305 ft | 271 kts | 229° |
| 2026-05-06 08:10 | -5.37534 | 119.59613 | 7013 ft | 275 kts | 261° |
| 2026-05-06 08:10 | -5.37372 | 119.57715 | 6712 ft | 275 kts | 290° |
| 2026-05-06 08:10 | -5.36550 | 119.55995 | 6426 ft | 274 kts | 301° |
| 2026-05-06 08:11 | -5.35616 | 119.54336 | 6075 ft | 277 kts | 302° |
| 2026-05-06 08:11 | -5.34665 | 119.52651 | 5735 ft | 279 kts | 301° |
| 2026-05-06 08:11 | -5.33719 | 119.50946 | 5411 ft | 280 kts | 301° |
| 2026-05-06 08:11 | -5.32776 | 119.49229 | 5085 ft | 282 kts | 301° |
| 2026-05-06 08:12 | -5.31839 | 119.47514 | 4757 ft | 279 kts | 301° |
| 2026-05-06 08:12 | -5.30863 | 119.45850 | 4411 ft | 273 kts | 311° |
| 2026-05-06 08:12 | -5.29418 | 119.44742 | 4112 ft | 254 kts | 340° |
| 2026-05-06 08:12 | -5.27748 | 119.44436 | 3806 ft | 238 kts | 3° |
| 2026-05-06 08:13 | -5.26175 | 119.44705 | 3564 ft | 221 kts | 22° |
| 2026-05-06 08:13 | -5.24844 | 119.45334 | 3402 ft | 206 kts | 31° |
| 2026-05-06 08:13 | -5.23633 | 119.46032 | 3171 ft | 196 kts | 32° |
| 2026-05-06 08:13 | -5.22474 | 119.46713 | 2943 ft | 190 kts | 32° |
| 2026-05-06 08:14 | -5.21357 | 119.47364 | 2687 ft | 183 kts | 32° |
| 2026-05-06 08:14 | -5.20295 | 119.47981 | 2457 ft | 169 kts | 32° |
| 2026-05-06 08:14 | -5.19316 | 119.48549 | 2278 ft | 153 kts | 32° |
| 2026-05-06 08:14 | -5.18416 | 119.49072 | 2103 ft | 146 kts | 32° |
| 2026-05-06 08:15 | -5.17529 | 119.49587 | 1888 ft | 148 kts | 32° |
| 2026-05-06 08:15 | -5.16627 | 119.50111 | 1694 ft | 151 kts | 32° |
| 2026-05-06 08:15 | -5.15717 | 119.50638 | 1500 ft | 150 kts | 31° |
| 2026-05-06 08:15 | -5.14815 | 119.51162 | 1304 ft | 149 kts | 31° |
| 2026-05-06 08:16 | -5.13918 | 119.51682 | 1108 ft | 149 kts | 31° |
| 2026-05-06 08:16 | -5.13022 | 119.52202 | 926 ft | 148 kts | 30° |
| 2026-05-06 08:16 | -5.12132 | 119.52726 | 722 ft | 148 kts | 28° |
| 2026-05-06 08:16 | -5.11258 | 119.53227 | 528 ft | 146 kts | 28° |
| 2026-05-06 08:17 | -5.10375 | 119.53739 | 326 ft | 146 kts | 30° |
| 2026-05-06 08:17 | -5.09507 | 119.54244 | 139 ft | 144 kts | 27° |
| 2026-05-06 08:17 | -5.08659 | 119.54735 | 43 ft | 132 kts | 27° |
| 2026-05-06 08:17 | -5.07973 | 119.55129 | 39 ft | 92 kts | 30° |
| 2026-05-06 08:18 | -5.07541 | 119.55378 | 40 ft | 56 kts | 28° |
| 2026-05-06 08:18 | -5.07300 | 119.55428 | 39 ft | 26 kts | 360° |
| 2026-05-06 08:18 | -5.07219 | 119.55414 | 40 ft | 13 kts | 321° |
| 2026-05-06 08:18 | -5.07239 | 119.55346 | 40 ft | 12 kts | 207° |
| 2026-05-06 08:19 | -5.07313 | 119.55305 | 40 ft | 12 kts | 210° |
| 2026-05-06 08:19 | -5.07407 | 119.55251 | 40 ft | 12 kts | 209° |
| 2026-05-06 08:19 | -5.07476 | 119.55212 | 40 ft | 11 kts | 210° |
| 2026-05-06 08:19 | -5.07522 | 119.55186 | 40 ft | 11 kts | 211° |
| 2026-05-06 08:20 | -5.07587 | 119.55147 | 40 ft | 11 kts | 213° |
| 2026-05-06 08:20 | -5.07616 | 119.55084 | 40 ft | 10 kts | 277° |
| 2026-05-06 08:20 | -5.07587 | 119.55019 | 40 ft | 10 kts | 288° |
| 2026-05-06 08:20 | -5.07590 | 119.54950 | 40 ft | 10 kts | 259° |
| 2026-05-06 08:21 | -5.07629 | 119.54897 | 40 ft | 10 kts | 214° |
| 2026-05-06 08:21 | -5.07686 | 119.54863 | 40 ft | 9 kts | 210° |
| 2026-05-06 08:21 | -5.07736 | 119.54826 | 40 ft | 9 kts | 251° |
| 2026-05-06 08:21 | -5.07713 | 119.54774 | 40 ft | 1 kts | 300° |
| 2026-05-06 08:22 | -5.07709 | 119.54766 | 40 ft | 1 kts | 299° |
| 2026-05-06 08:22 | -5.07707 | 119.54762 | 40 ft | 0 kts | 300° |